sensor_id;sensor_type;location;lat;lon;timestamp;temperature;humidity
16313;DHT22;8265;52.622;13.296;2024-01-30T00:01:28;2.20;73.30
16313;DHT22;8265;52.622;13.296;2024-01-30T00:06:48;2.10;72.50
16313;DHT22;8265;52.622;13.296;2024-01-30T00:12:09;1.80;74.20
16313;DHT22;8265;52.622;13.296;2024-01-30T00:17:30;1.70;74.40
16313;DHT22;8265;52.622;13.296;2024-01-30T00:22:51;2.00;73.20
16313;DHT22;8265;52.622;13.296;2024-01-30T00:28:13;1.80;74.10
16313;DHT22;8265;52.622;13.296;2024-01-30T00:33:33;2.10;73.20
16313;DHT22;8265;52.622;13.296;2024-01-30T00:38:54;2.00;72.40
16313;DHT22;8265;52.622;13.296;2024-01-30T00:44:15;1.90;73.40
16313;DHT22;8265;52.622;13.296;2024-01-30T00:49:36;1.90;72.30
16313;DHT22;8265;52.622;13.296;2024-01-30T00:54:57;2.00;72.70
16313;DHT22;8265;52.622;13.296;2024-01-30T01:00:18;2.00;72.70
16313;DHT22;8265;52.622;13.296;2024-01-30T01:05:39;1.70;73.50
16313;DHT22;8265;52.622;13.296;2024-01-30T01:11:00;1.60;73.60
16313;DHT22;8265;52.622;13.296;2024-01-30T01:16:21;1.60;74.10
16313;DHT22;8265;52.622;13.296;2024-01-30T01:21:42;1.60;74.10
16313;DHT22;8265;52.622;13.296;2024-01-30T01:27:04;1.70;73.20
16313;DHT22;8265;52.622;13.296;2024-01-30T01:32:24;1.80;73.90
16313;DHT22;8265;52.622;13.296;2024-01-30T01:37:45;1.70;73.30
16313;DHT22;8265;52.622;13.296;2024-01-30T01:43:06;1.90;72.70
16313;DHT22;8265;52.622;13.296;2024-01-30T01:48:27;1.60;74.00
16313;DHT22;8265;52.622;13.296;2024-01-30T01:53:48;1.60;73.70
16313;DHT22;8265;52.622;13.296;2024-01-30T01:59:09;1.60;73.70
16313;DHT22;8265;52.622;13.296;2024-01-30T02:04:30;1.60;74.00
16313;DHT22;8265;52.622;13.296;2024-01-30T02:09:51;1.40;74.30
16313;DHT22;8265;52.622;13.296;2024-01-30T02:15:15;1.50;73.80
16313;DHT22;8265;52.622;13.296;2024-01-30T02:20:34;1.50;73.80
16313;DHT22;8265;52.622;13.296;2024-01-30T02:25:54;1.60;74.20
16313;DHT22;8265;52.622;13.296;2024-01-30T02:31:15;1.40;75.10
16313;DHT22;8265;52.622;13.296;2024-01-30T02:36:36;1.40;74.70
16313;DHT22;8265;52.622;13.296;2024-01-30T02:41:57;1.10;75.70
16313;DHT22;8265;52.622;13.296;2024-01-30T02:47:18;1.20;75.10
16313;DHT22;8265;52.622;13.296;2024-01-30T02:52:39;1.10;75.50
16313;DHT22;8265;52.622;13.296;2024-01-30T02:58:00;1.00;76.10
16313;DHT22;8265;52.622;13.296;2024-01-30T03:03:21;1.10;75.80
16313;DHT22;8265;52.622;13.296;2024-01-30T03:08:42;1.00;76.00
16313;DHT22;8265;52.622;13.296;2024-01-30T03:14:03;1.20;75.70
16313;DHT22;8265;52.622;13.296;2024-01-30T03:19:24;1.20;75.10
16313;DHT22;8265;52.622;13.296;2024-01-30T03:24:45;1.30;74.30
16313;DHT22;8265;52.622;13.296;2024-01-30T03:30:07;1.10;75.60
16313;DHT22;8265;52.622;13.296;2024-01-30T03:35:27;1.10;75.90
16313;DHT22;8265;52.622;13.296;2024-01-30T03:40:48;1.30;74.70
16313;DHT22;8265;52.622;13.296;2024-01-30T03:46:11;1.20;75.20
16313;DHT22;8265;52.622;13.296;2024-01-30T03:51:30;1.10;75.20
16313;DHT22;8265;52.622;13.296;2024-01-30T03:56:51;1.20;75.00
16313;DHT22;8265;52.622;13.296;2024-01-30T04:02:12;1.10;75.40
16313;DHT22;8265;52.622;13.296;2024-01-30T04:07:33;1.10;75.30
16313;DHT22;8265;52.622;13.296;2024-01-30T04:12:54;1.00;75.90
16313;DHT22;8265;52.622;13.296;2024-01-30T04:18:15;1.00;76.00
16313;DHT22;8265;52.622;13.296;2024-01-30T04:23:36;1.10;75.30
16313;DHT22;8265;52.622;13.296;2024-01-30T04:28:57;0.90;76.70
16313;DHT22;8265;52.622;13.296;2024-01-30T04:34:18;1.00;76.10
16313;DHT22;8265;52.622;13.296;2024-01-30T04:39:39;1.20;75.40
16313;DHT22;8265;52.622;13.296;2024-01-30T04:45:00;1.00;76.50
16313;DHT22;8265;52.622;13.296;2024-01-30T04:50:21;1.00;76.80
16313;DHT22;8265;52.622;13.296;2024-01-30T04:55:42;1.20;76.20
16313;DHT22;8265;52.622;13.296;2024-01-30T05:01:03;1.00;76.50
16313;DHT22;8265;52.622;13.296;2024-01-30T05:06:25;1.00;76.50
16313;DHT22;8265;52.622;13.296;2024-01-30T05:11:45;1.10;76.40
16313;DHT22;8265;52.622;13.296;2024-01-30T05:17:06;1.00;76.60
16313;DHT22;8265;52.622;13.296;2024-01-30T05:22:27;0.90;77.00
16313;DHT22;8265;52.622;13.296;2024-01-30T05:27:48;0.90;76.80
16313;DHT22;8265;52.622;13.296;2024-01-30T05:33:09;0.80;77.20
16313;DHT22;8265;52.622;13.296;2024-01-30T05:38:30;0.80;77.50
16313;DHT22;8265;52.622;13.296;2024-01-30T05:45:00;1.00;76.70
16313;DHT22;8265;52.622;13.296;2024-01-30T05:50:21;1.00;76.90
16313;DHT22;8265;52.622;13.296;2024-01-30T05:55:42;1.10;75.90
16313;DHT22;8265;52.622;13.296;2024-01-30T06:01:06;1.20;75.80
16313;DHT22;8265;52.622;13.296;2024-01-30T06:06:24;1.20;75.60
16313;DHT22;8265;52.622;13.296;2024-01-30T06:11:45;1.00;76.40
16313;DHT22;8265;52.622;13.296;2024-01-30T06:17:06;1.00;77.50
16313;DHT22;8265;52.622;13.296;2024-01-30T06:22:27;1.10;76.20
16313;DHT22;8265;52.622;13.296;2024-01-30T06:27:48;1.30;75.90
16313;DHT22;8265;52.622;13.296;2024-01-30T06:33:11;1.40;75.50
16313;DHT22;8265;52.622;13.296;2024-01-30T06:38:30;1.30;75.80
16313;DHT22;8265;52.622;13.296;2024-01-30T06:43:51;1.00;77.20
16313;DHT22;8265;52.622;13.296;2024-01-30T06:49:12;0.90;77.70
16313;DHT22;8265;52.622;13.296;2024-01-30T06:54:33;1.00;77.20
16313;DHT22;8265;52.622;13.296;2024-01-30T06:59:55;1.00;77.00
16313;DHT22;8265;52.622;13.296;2024-01-30T07:05:15;0.80;77.50
16313;DHT22;8265;52.622;13.296;2024-01-30T07:10:36;0.90;77.50
16313;DHT22;8265;52.622;13.296;2024-01-30T07:15:57;1.00;77.60
16313;DHT22;8265;52.622;13.296;2024-01-30T07:21:18;1.00;77.70
16313;DHT22;8265;52.622;13.296;2024-01-30T07:26:39;1.00;77.80
16313;DHT22;8265;52.622;13.296;2024-01-30T07:32:00;0.80;78.30
16313;DHT22;8265;52.622;13.296;2024-01-30T07:37:21;1.00;78.10
16313;DHT22;8265;52.622;13.296;2024-01-30T07:42:42;1.10;78.70
16313;DHT22;8265;52.622;13.296;2024-01-30T07:48:03;1.20;77.70
16313;DHT22;8265;52.622;13.296;2024-01-30T07:53:24;1.40;77.60
16313;DHT22;8265;52.622;13.296;2024-01-30T07:58:44;1.50;77.00
16313;DHT22;8265;52.622;13.296;2024-01-30T08:04:05;1.60;76.70
16313;DHT22;8265;52.622;13.296;2024-01-30T08:09:26;1.70;76.90
16313;DHT22;8265;52.622;13.296;2024-01-30T08:14:47;1.90;76.60
16313;DHT22;8265;52.622;13.296;2024-01-30T08:20:08;1.90;76.30
16313;DHT22;8265;52.622;13.296;2024-01-30T08:25:29;2.10;76.00
16313;DHT22;8265;52.622;13.296;2024-01-30T08:30:50;2.40;75.20
16313;DHT22;8265;52.622;13.296;2024-01-30T08:36:11;2.50;74.50
16313;DHT22;8265;52.622;13.296;2024-01-30T08:41:32;2.70;73.60
16313;DHT22;8265;52.622;13.296;2024-01-30T08:46:53;2.70;73.80
16313;DHT22;8265;52.622;13.296;2024-01-30T08:52:14;2.80;73.70
16313;DHT22;8265;52.622;13.296;2024-01-30T08:57:36;3.00;73.10
16313;DHT22;8265;52.622;13.296;2024-01-30T09:02:56;3.00;72.50
16313;DHT22;8265;52.622;13.296;2024-01-30T09:08:17;3.20;72.60
16313;DHT22;8265;52.622;13.296;2024-01-30T09:13:38;3.30;71.50
16313;DHT22;8265;52.622;13.296;2024-01-30T09:18:59;3.60;70.40
16313;DHT22;8265;52.622;13.296;2024-01-30T09:24:20;3.80;69.40
16313;DHT22;8265;52.622;13.296;2024-01-30T09:29:41;3.70;69.60
16313;DHT22;8265;52.622;13.296;2024-01-30T09:35:02;3.80;69.40
16313;DHT22;8265;52.622;13.296;2024-01-30T09:40:23;4.00;68.60
16313;DHT22;8265;52.622;13.296;2024-01-30T09:45:44;4.20;67.70
16313;DHT22;8265;52.622;13.296;2024-01-30T09:51:05;4.30;67.20
16313;DHT22;8265;52.622;13.296;2024-01-30T09:56:26;4.50;66.20
16313;DHT22;8265;52.622;13.296;2024-01-30T10:01:47;4.50;66.20
16313;DHT22;8265;52.622;13.296;2024-01-30T10:07:08;4.50;65.50
16313;DHT22;8265;52.622;13.296;2024-01-30T10:12:29;4.70;65.40
16313;DHT22;8265;52.622;13.296;2024-01-30T10:17:50;4.70;65.20
16313;DHT22;8265;52.622;13.296;2024-01-30T10:23:11;4.80;64.40
16313;DHT22;8265;52.622;13.296;2024-01-30T10:28:32;5.00;64.00
16313;DHT22;8265;52.622;13.296;2024-01-30T10:33:53;5.10;63.30
16313;DHT22;8265;52.622;13.296;2024-01-30T10:39:14;5.30;62.90
16313;DHT22;8265;52.622;13.296;2024-01-30T10:49:56;5.70;61.60
16313;DHT22;8265;52.622;13.296;2024-01-30T10:55:17;5.90;60.10
16313;DHT22;8265;52.622;13.296;2024-01-30T11:00:38;6.00;60.20
16313;DHT22;8265;52.622;13.296;2024-01-30T11:05:59;6.20;59.60
16313;DHT22;8265;52.622;13.296;2024-01-30T11:11:20;6.20;59.20
16313;DHT22;8265;52.622;13.296;2024-01-30T11:16:41;6.50;59.50
16313;DHT22;8265;52.622;13.296;2024-01-30T11:22:02;6.70;58.50
16313;DHT22;8265;52.622;13.296;2024-01-30T11:27:23;6.80;57.90
16313;DHT22;8265;52.622;13.296;2024-01-30T11:32:44;7.00;57.80
16313;DHT22;8265;52.622;13.296;2024-01-30T11:38:05;7.20;57.70
16313;DHT22;8265;52.622;13.296;2024-01-30T11:43:26;7.00;57.10
16313;DHT22;8265;52.622;13.296;2024-01-30T11:48:47;7.00;58.00
16313;DHT22;8265;52.622;13.296;2024-01-30T11:54:08;7.00;57.60
16313;DHT22;8265;52.622;13.296;2024-01-30T11:59:29;7.00;58.40
16313;DHT22;8265;52.622;13.296;2024-01-30T12:04:50;7.20;57.70
16313;DHT22;8265;52.622;13.296;2024-01-30T12:10:11;7.20;57.50
16313;DHT22;8265;52.622;13.296;2024-01-30T12:15:31;7.30;57.70
16313;DHT22;8265;52.622;13.296;2024-01-30T12:20:58;7.40;58.00
16313;DHT22;8265;52.622;13.296;2024-01-30T12:26:13;7.60;57.00
16313;DHT22;8265;52.622;13.296;2024-01-30T12:31:34;7.40;57.70
16313;DHT22;8265;52.622;13.296;2024-01-30T12:36:55;7.40;57.40
16313;DHT22;8265;52.622;13.296;2024-01-30T12:42:17;7.50;57.70
16313;DHT22;8265;52.622;13.296;2024-01-30T12:47:37;7.40;57.20
16313;DHT22;8265;52.622;13.296;2024-01-30T12:52:58;7.20;58.30
16313;DHT22;8265;52.622;13.296;2024-01-30T12:58:19;7.20;58.50
16313;DHT22;8265;52.622;13.296;2024-01-30T13:03:40;7.20;58.30
16313;DHT22;8265;52.622;13.296;2024-01-30T13:09:01;7.20;58.30
16313;DHT22;8265;52.622;13.296;2024-01-30T13:14:22;7.10;58.90
16313;DHT22;8265;52.622;13.296;2024-01-30T13:19:43;7.10;58.90
16313;DHT22;8265;52.622;13.296;2024-01-30T13:25:04;7.20;59.10
16313;DHT22;8265;52.622;13.296;2024-01-30T13:30:25;7.00;59.30
16313;DHT22;8265;52.622;13.296;2024-01-30T13:35:46;6.90;60.00
16313;DHT22;8265;52.622;13.296;2024-01-30T13:41:07;7.20;59.30
16313;DHT22;8265;52.622;13.296;2024-01-30T13:46:29;7.20;59.30
16313;DHT22;8265;52.622;13.296;2024-01-30T13:51:49;7.20;59.90
16313;DHT22;8265;52.622;13.296;2024-01-30T13:57:10;7.10;60.30
16313;DHT22;8265;52.622;13.296;2024-01-30T14:02:31;7.00;60.30
16313;DHT22;8265;52.622;13.296;2024-01-30T14:07:52;7.00;60.50
16313;DHT22;8265;52.622;13.296;2024-01-30T14:13:13;7.00;60.50
16313;DHT22;8265;52.622;13.296;2024-01-30T14:18:34;6.90;60.80
16313;DHT22;8265;52.622;13.296;2024-01-30T14:23:55;6.80;61.50
16313;DHT22;8265;52.622;13.296;2024-01-30T14:29:16;6.80;61.90
16313;DHT22;8265;52.622;13.296;2024-01-30T14:34:37;7.00;61.50
16313;DHT22;8265;52.622;13.296;2024-01-30T14:39:58;6.90;62.00
16313;DHT22;8265;52.622;13.296;2024-01-30T14:45:19;7.00;61.70
16313;DHT22;8265;52.622;13.296;2024-01-30T14:50:40;6.80;62.20
16313;DHT22;8265;52.622;13.296;2024-01-30T14:56:01;6.80;62.30
16313;DHT22;8265;52.622;13.296;2024-01-30T15:01:22;6.70;63.00
16313;DHT22;8265;52.622;13.296;2024-01-30T15:06:43;6.80;62.80
16313;DHT22;8265;52.622;13.296;2024-01-30T15:12:04;6.60;63.40
16313;DHT22;8265;52.622;13.296;2024-01-30T15:17:25;6.60;63.70
16313;DHT22;8265;52.622;13.296;2024-01-30T15:22:46;6.50;63.70
16313;DHT22;8265;52.622;13.296;2024-01-30T15:28:07;6.50;64.30
16313;DHT22;8265;52.622;13.296;2024-01-30T15:33:28;6.30;65.20
16313;DHT22;8265;52.622;13.296;2024-01-30T15:38:49;6.20;65.50
16313;DHT22;8265;52.622;13.296;2024-01-30T15:44:10;6.20;65.70
16313;DHT22;8265;52.622;13.296;2024-01-30T15:49:31;6.20;65.40
16313;DHT22;8265;52.622;13.296;2024-01-30T15:54:52;6.00;66.10
16313;DHT22;8265;52.622;13.296;2024-01-30T16:00:13;5.90;66.80
16313;DHT22;8265;52.622;13.296;2024-01-30T16:05:34;5.80;67.60
16313;DHT22;8265;52.622;13.296;2024-01-30T16:10:55;5.60;68.70
16313;DHT22;8265;52.622;13.296;2024-01-30T16:16:16;5.50;69.20
16313;DHT22;8265;52.622;13.296;2024-01-30T16:21:36;5.50;69.00
16313;DHT22;8265;52.622;13.296;2024-01-30T16:26:57;5.50;69.10
16313;DHT22;8265;52.622;13.296;2024-01-30T16:32:18;5.50;69.60
16313;DHT22;8265;52.622;13.296;2024-01-30T16:37:39;5.50;69.90
16313;DHT22;8265;52.622;13.296;2024-01-30T16:43:00;5.50;70.00
16313;DHT22;8265;52.622;13.296;2024-01-30T16:48:21;5.30;70.70
16313;DHT22;8265;52.622;13.296;2024-01-30T16:53:42;5.30;70.80
16313;DHT22;8265;52.622;13.296;2024-01-30T16:59:03;5.30;71.10
16313;DHT22;8265;52.622;13.296;2024-01-30T17:04:24;5.50;70.70
16313;DHT22;8265;52.622;13.296;2024-01-30T17:09:45;5.50;70.40
16313;DHT22;8265;52.622;13.296;2024-01-30T17:15:06;5.50;71.00
16313;DHT22;8265;52.622;13.296;2024-01-30T17:20:27;5.40;71.20
16313;DHT22;8265;52.622;13.296;2024-01-30T17:25:48;5.30;71.90
16313;DHT22;8265;52.622;13.296;2024-01-30T17:31:09;5.30;71.90
16313;DHT22;8265;52.622;13.296;2024-01-30T17:36:30;5.40;71.50
16313;DHT22;8265;52.622;13.296;2024-01-30T17:41:51;5.30;72.10
16313;DHT22;8265;52.622;13.296;2024-01-30T17:47:12;5.10;72.70
16313;DHT22;8265;52.622;13.296;2024-01-30T17:52:33;5.10;73.10
16313;DHT22;8265;52.622;13.296;2024-01-30T17:57:54;5.00;73.40
16313;DHT22;8265;52.622;13.296;2024-01-30T18:03:15;5.00;73.60
16313;DHT22;8265;52.622;13.296;2024-01-30T18:08:36;5.30;73.40
16313;DHT22;8265;52.622;13.296;2024-01-30T18:13:57;5.40;73.50
16313;DHT22;8265;52.622;13.296;2024-01-30T18:19:18;5.30;73.80
16313;DHT22;8265;52.622;13.296;2024-01-30T18:24:39;5.50;73.80
16313;DHT22;8265;52.622;13.296;2024-01-30T18:30:00;5.70;74.40
16313;DHT22;8265;52.622;13.296;2024-01-30T18:35:21;5.90;74.00
16313;DHT22;8265;52.622;13.296;2024-01-30T18:40:42;6.20;73.60
16313;DHT22;8265;52.622;13.296;2024-01-30T18:46:03;6.30;73.30
16313;DHT22;8265;52.622;13.296;2024-01-30T18:51:24;6.50;72.90
16313;DHT22;8265;52.622;13.296;2024-01-30T18:56:45;6.70;73.00
16313;DHT22;8265;52.622;13.296;2024-01-30T19:02:06;6.90;72.50
16313;DHT22;8265;52.622;13.296;2024-01-30T19:07:27;6.80;72.60
16313;DHT22;8265;52.622;13.296;2024-01-30T19:12:48;7.00;72.70
16313;DHT22;8265;52.622;13.296;2024-01-30T19:18:09;7.10;72.60
16313;DHT22;8265;52.622;13.296;2024-01-30T19:23:30;7.10;73.20
16313;DHT22;8265;52.622;13.296;2024-01-30T19:28:51;7.20;73.00
16313;DHT22;8265;52.622;13.296;2024-01-30T19:34:12;7.20;73.00
16313;DHT22;8265;52.622;13.296;2024-01-30T19:39:33;7.20;73.40
16313;DHT22;8265;52.622;13.296;2024-01-30T19:44:54;7.20;73.80
16313;DHT22;8265;52.622;13.296;2024-01-30T19:50:15;7.30;73.50
16313;DHT22;8265;52.622;13.296;2024-01-30T19:55:36;7.30;73.30
16313;DHT22;8265;52.622;13.296;2024-01-30T20:00:57;7.20;73.80
16313;DHT22;8265;52.622;13.296;2024-01-30T20:06:18;7.20;74.30
16313;DHT22;8265;52.622;13.296;2024-01-30T20:11:39;7.20;74.70
16313;DHT22;8265;52.622;13.296;2024-01-30T20:17:00;7.20;75.00
16313;DHT22;8265;52.622;13.296;2024-01-30T20:22:20;7.00;75.00
16313;DHT22;8265;52.622;13.296;2024-01-30T20:27:41;7.00;76.10
16313;DHT22;8265;52.622;13.296;2024-01-30T20:33:02;7.00;75.90
16313;DHT22;8265;52.622;13.296;2024-01-30T20:38:23;7.20;76.60
16313;DHT22;8265;52.622;13.296;2024-01-30T20:43:44;7.40;76.00
16313;DHT22;8265;52.622;13.296;2024-01-30T20:49:05;7.20;76.70
16313;DHT22;8265;52.622;13.296;2024-01-30T20:54:26;7.20;76.90
16313;DHT22;8265;52.622;13.296;2024-01-30T20:59:47;7.30;77.10
16313;DHT22;8265;52.622;13.296;2024-01-30T21:05:08;7.20;77.30
16313;DHT22;8265;52.622;13.296;2024-01-30T21:10:29;7.20;78.30
16313;DHT22;8265;52.622;13.296;2024-01-30T21:15:50;7.20;78.40
16313;DHT22;8265;52.622;13.296;2024-01-30T21:21:11;7.30;78.20
16313;DHT22;8265;52.622;13.296;2024-01-30T21:26:32;7.40;78.30
16313;DHT22;8265;52.622;13.296;2024-01-30T21:31:53;7.30;78.20
16313;DHT22;8265;52.622;13.296;2024-01-30T21:37:14;7.30;78.50
16313;DHT22;8265;52.622;13.296;2024-01-30T21:42:56;7.20;79.00
16313;DHT22;8265;52.622;13.296;2024-01-30T21:48:17;7.20;79.30
16313;DHT22;8265;52.622;13.296;2024-01-30T21:53:38;7.20;79.70
16313;DHT22;8265;52.622;13.296;2024-01-30T21:58:59;7.20;79.70
16313;DHT22;8265;52.622;13.296;2024-01-30T22:04:20;7.30;79.70
16313;DHT22;8265;52.622;13.296;2024-01-30T22:09:41;7.20;79.70
16313;DHT22;8265;52.622;13.296;2024-01-30T22:15:02;7.40;79.70
16313;DHT22;8265;52.622;13.296;2024-01-30T22:20:23;7.30;79.70
16313;DHT22;8265;52.622;13.296;2024-01-30T22:25:44;7.20;79.70
16313;DHT22;8265;52.622;13.296;2024-01-30T22:31:05;7.20;80.40
16313;DHT22;8265;52.622;13.296;2024-01-30T22:36:26;7.40;79.90
16313;DHT22;8265;52.622;13.296;2024-01-30T22:41:47;7.40;79.80
16313;DHT22;8265;52.622;13.296;2024-01-30T22:47:08;7.40;79.90
16313;DHT22;8265;52.622;13.296;2024-01-30T22:52:29;7.40;79.80
16313;DHT22;8265;52.622;13.296;2024-01-30T22:57:50;7.40;79.70
16313;DHT22;8265;52.622;13.296;2024-01-30T23:03:11;7.40;79.40
16313;DHT22;8265;52.622;13.296;2024-01-30T23:08:32;7.40;79.50
16313;DHT22;8265;52.622;13.296;2024-01-30T23:13:52;7.20;79.80
16313;DHT22;8265;52.622;13.296;2024-01-30T23:35:41;7.20;80.20
16313;DHT22;8265;52.622;13.296;2024-01-30T23:40:37;7.30;79.70
16313;DHT22;8265;52.622;13.296;2024-01-30T23:45:58;7.40;79.30
16313;DHT22;8265;52.622;13.296;2024-01-30T23:51:19;7.50;78.90
16313;DHT22;8265;52.622;13.296;2024-01-30T23:56:41;7.50;78.30
